Time;durP1;ratioP1;P1;durP2;ratioP2;P2;SDS_P1;SDS_P2;PMS_P1;PMS_P2;Temp;Humidity;BMP_temperature;BMP_pressure;BME280_temperature;BME280_humidity;BME280_pressure;Samples;Min_cycle;Max_cycle;Signal;HPM_P1;HPM_P2
2024/03/19 00:00:34;;;;;;;22.33;20.60;;;8.50;99.90;;;;;;5004976;28;20212;-79
2024/03/19 00:03:01;;;;;;;21.67;20.07;;;8.40;99.90;;;;;;4997675;28;20225;-78
2024/03/19 00:05:28;;;;;;;22.47;20.77;;;8.40;99.90;;;;;;5003932;28;20219;-78
2024/03/19 00:07:54;;;;;;;22.63;20.93;;;8.40;99.90;;;;;;4998266;28;20213;-79
2024/03/19 00:10:22;;;;;;;22.77;21.13;;;8.40;99.90;;;;;;4999762;28;20213;-79
2024/03/19 00:12:50;;;;;;;22.83;21.03;;;8.30;99.90;;;;;;4999318;28;20221;-79
2024/03/19 00:15:17;;;;;;;23.87;22.17;;;8.30;99.90;;;;;;4999089;28;20256;-78
2024/03/19 00:17:44;;;;;;;23.00;21.20;;;8.20;99.90;;;;;;5005136;28;20218;-79
2024/03/19 00:20:12;;;;;;;21.57;19.97;;;8.20;99.90;;;;;;4997015;28;20198;-79
2024/03/19 00:22:39;;;;;;;23.20;21.40;;;8.20;99.90;;;;;;5003197;28;20582;-79
2024/03/19 00:25:06;;;;;;;22.20;20.60;;;8.20;99.90;;;;;;4997938;28;20198;-81
2024/03/19 00:27:35;;;;;;;22.90;21.00;;;8.20;99.90;;;;;;5001270;28;20654;-78
2024/03/19 00:30:03;;;;;;;21.27;19.67;;;8.10;99.90;;;;;;5013961;28;20252;-79
2024/03/19 00:32:30;;;;;;;21.33;19.63;;;8.10;99.90;;;;;;4997075;28;20304;-79
2024/03/19 00:34:57;;;;;;;22.67;20.87;;;8.00;99.90;;;;;;5001079;28;20240;-78
2024/03/19 00:37:24;;;;;;;21.37;19.77;;;8.00;99.90;;;;;;4997882;28;20201;-79
2024/03/19 00:39:51;;;;;;;20.57;19.17;;;7.90;99.90;;;;;;5002432;28;20209;-78
2024/03/19 00:42:17;;;;;;;21.80;20.10;;;7.90;99.90;;;;;;5000509;28;20580;-79
2024/03/19 00:44:46;;;;;;;22.00;20.50;;;7.80;99.90;;;;;;5006170;28;20197;-78
2024/03/19 00:47:12;;;;;;;23.07;21.40;;;7.80;99.90;;;;;;4999347;28;20243;-78
2024/03/19 00:49:39;;;;;;;23.17;21.37;;;7.80;99.90;;;;;;5003509;28;20205;-78
2024/03/19 00:52:06;;;;;;;22.50;21.00;;;7.80;99.90;;;;;;5010770;28;20224;-78
2024/03/19 00:54:33;;;;;;;22.67;21.03;;;7.70;99.90;;;;;;5001888;28;20247;-78
2024/03/19 00:57:00;;;;;;;24.23;22.23;;;7.70;99.90;;;;;;4999112;28;20201;-79
2024/03/19 00:59:27;;;;;;;22.57;21.07;;;7.70;99.90;;;;;;5002471;28;20197;-78
2024/03/19 01:01:55;;;;;;;22.57;20.87;;;7.70;99.90;;;;;;4997112;28;20225;-79
2024/03/19 01:04:23;;;;;;;21.93;20.43;;;7.60;99.90;;;;;;5006668;28;20674;-79
2024/03/19 01:06:49;;;;;;;22.10;20.50;;;7.50;99.90;;;;;;5003214;28;20559;-78
2024/03/19 01:09:18;;;;;;;22.27;20.70;;;7.40;99.90;;;;;;4999768;28;20733;-79
2024/03/19 01:11:45;;;;;;;21.77;20.23;;;7.30;99.90;;;;;;5000174;28;20300;-79
2024/03/19 01:14:11;;;;;;;21.87;20.37;;;7.20;99.90;;;;;;4999041;28;20242;-79
2024/03/19 01:16:38;;;;;;;22.00;20.50;;;7.10;99.90;;;;;;4999385;28;20639;-79
2024/03/19 01:19:05;;;;;;;22.73;21.13;;;7.10;99.90;;;;;;4996532;28;20235;-79
2024/03/19 01:21:32;;;;;;;21.53;20.03;;;7.00;99.90;;;;;;4997887;28;20259;-79
2024/03/19 01:24:00;;;;;;;23.60;21.77;;;7.00;99.90;;;;;;5001842;28;20257;-78
2024/03/19 01:26:27;;;;;;;22.20;20.60;;;7.00;99.90;;;;;;4997635;28;20209;-79
2024/03/19 01:28:53;;;;;;;22.37;20.77;;;6.90;99.90;;;;;;5002037;28;20201;-79
2024/03/19 01:31:20;;;;;;;23.53;21.80;;;6.90;99.90;;;;;;4996969;28;20221;-79
2024/03/19 01:33:47;;;;;;;22.77;21.17;;;6.80;99.90;;;;;;4998687;28;20624;-78
2024/03/19 01:36:15;;;;;;;22.57;20.90;;;6.80;99.90;;;;;;4997445;28;20189;-78
2024/03/19 01:38:42;;;;;;;21.87;20.37;;;6.80;99.90;;;;;;4996747;28;20209;-79
2024/03/19 01:41:11;;;;;;;22.17;20.60;;;6.80;99.90;;;;;;5008993;28;20203;-79
2024/03/19 01:43:40;;;;;;;21.70;20.10;;;6.80;99.90;;;;;;4996944;28;20244;-79
2024/03/19 01:46:26;;;;;;;22.67;21.07;;;6.80;99.90;;;;;;5001433;28;20207;-79
2024/03/19 01:48:54;;;;;;;23.63;21.87;;;6.80;99.90;;;;;;4994079;28;20291;-79
2024/03/19 01:51:24;;;;;;;23.70;21.80;;;6.90;99.90;;;;;;4995878;28;20224;-79
2024/03/19 01:53:52;;;;;;;22.87;21.33;;;6.80;99.90;;;;;;4998469;28;20289;-78
2024/03/19 01:56:20;;;;;;;21.80;20.30;;;6.70;99.90;;;;;;4995144;28;20214;-79
2024/03/19 01:58:48;;;;;;;24.00;22.23;;;6.70;99.90;;;;;;5001840;28;20732;-78
2024/03/19 02:01:16;;;;;;;22.73;21.13;;;6.60;99.90;;;;;;4994613;28;20228;-78
2024/03/19 02:03:44;;;;;;;22.53;20.93;;;6.60;99.90;;;;;;4998296;28;20606;-78
2024/03/19 02:06:11;;;;;;;23.00;21.20;;;6.60;99.90;;;;;;5002241;28;20804;-78
2024/03/19 02:08:39;;;;;;;21.40;19.90;;;6.50;99.90;;;;;;4996569;28;20201;-79
2024/03/19 02:11:06;;;;;;;22.53;20.83;;;6.60;99.90;;;;;;5012312;28;20637;-78
2024/03/19 02:13:33;;;;;;;21.80;20.30;;;6.60;99.90;;;;;;4994323;28;20295;-79
2024/03/19 02:16:01;;;;;;;22.23;20.73;;;6.60;99.90;;;;;;5001944;28;20242;-78
2024/03/19 02:18:27;;;;;;;22.43;20.83;;;6.70;99.90;;;;;;5004615;28;20204;-76
2024/03/19 02:20:54;;;;;;;22.03;20.53;;;6.70;99.90;;;;;;5002321;28;20203;-78
2024/03/19 02:23:23;;;;;;;21.60;20.10;;;6.70;99.90;;;;;;4994115;28;20228;-79
2024/03/19 02:25:49;;;;;;;20.43;19.03;;;6.70;99.90;;;;;;5000470;28;20725;-79
2024/03/19 02:28:16;;;;;;;21.70;20.20;;;6.70;99.90;;;;;;5010821;28;20675;-79
2024/03/19 02:30:44;;;;;;;21.10;19.70;;;6.70;99.90;;;;;;4995774;28;20208;-78
2024/03/19 02:33:10;;;;;;;21.07;19.73;;;6.70;99.90;;;;;;5000699;28;20223;-79
2024/03/19 02:35:37;;;;;;;20.90;19.50;;;6.70;99.90;;;;;;4993270;28;20206;-78
2024/03/19 02:38:04;;;;;;;20.87;19.47;;;6.70;99.90;;;;;;5003028;28;20225;-79
2024/03/19 02:40:32;;;;;;;21.27;19.77;;;6.80;99.90;;;;;;5000657;28;20284;-81
2024/03/19 02:42:59;;;;;;;21.00;19.53;;;6.80;99.90;;;;;;5000057;28;20223;-78
2024/03/19 02:45:27;;;;;;;21.70;20.07;;;6.70;99.90;;;;;;4999543;28;20209;-78
2024/03/19 02:47:54;;;;;;;21.30;19.80;;;6.70;99.90;;;;;;5006974;28;20226;-78
2024/03/19 02:50:20;;;;;;;20.97;19.50;;;6.70;99.90;;;;;;4997460;28;20748;-79
2024/03/19 02:52:47;;;;;;;21.83;20.33;;;6.70;99.90;;;;;;4998055;28;20223;-79
2024/03/19 02:55:14;;;;;;;21.47;20.00;;;6.70;99.90;;;;;;4997762;28;20196;-81
2024/03/19 02:57:44;;;;;;;21.23;19.83;;;6.70;99.90;;;;;;5003560;28;20212;-79
2024/03/19 03:00:12;;;;;;;20.53;19.23;;;6.70;99.90;;;;;;5004939;28;20583;-78
2024/03/19 03:02:39;;;;;;;20.07;18.77;;;6.60;99.90;;;;;;5011255;28;20248;-78
2024/03/19 03:05:06;;;;;;;20.23;19.00;;;6.70;99.90;;;;;;5002295;28;20204;-79
2024/03/19 03:07:33;;;;;;;19.70;18.50;;;6.60;99.90;;;;;;5008256;28;20205;-79
2024/03/19 03:10:00;;;;;;;19.30;18.00;;;6.70;99.90;;;;;;5002500;28;20248;-81
2024/03/19 03:12:27;;;;;;;19.40;18.20;;;6.60;99.90;;;;;;4999042;28;20231;-78
2024/03/19 03:14:55;;;;;;;19.37;18.20;;;6.60;99.90;;;;;;5000500;28;20208;-79
2024/03/19 03:17:22;;;;;;;20.13;18.90;;;6.60;99.90;;;;;;5010896;28;20637;-79
2024/03/19 03:19:49;;;;;;;20.57;19.27;;;6.50;99.90;;;;;;5000577;28;20555;-78
2024/03/19 03:22:16;;;;;;;20.77;19.33;;;6.50;99.90;;;;;;5003670;28;20695;-77
2024/03/19 03:24:44;;;;;;;20.80;19.47;;;6.50;99.90;;;;;;4998079;28;20228;-78
2024/03/19 03:27:11;;;;;;;21.53;19.93;;;6.40;99.90;;;;;;5004094;28;20228;-81
2024/03/19 03:29:38;;;;;;;20.50;19.20;;;6.40;99.90;;;;;;4999047;28;20195;-81
2024/03/19 03:32:08;;;;;;;20.73;19.33;;;6.40;99.90;;;;;;5000508;28;20231;-81
2024/03/19 03:34:35;;;;;;;19.87;18.57;;;6.40;99.90;;;;;;5004231;28;20695;-78
2024/03/19 03:37:03;;;;;;;20.23;19.03;;;6.30;99.90;;;;;;5000852;28;20251;-79
2024/03/19 03:39:30;;;;;;;20.17;18.77;;;6.20;99.90;;;;;;5004461;28;20203;-78
2024/03/19 03:41:57;;;;;;;20.13;18.83;;;6.20;99.90;;;;;;5006728;28;20223;-77
2024/03/19 03:44:24;;;;;;;20.07;18.77;;;6.10;99.90;;;;;;5003879;28;20243;-78
2024/03/19 03:46:51;;;;;;;20.53;19.13;;;6.10;99.90;;;;;;5007962;28;20681;-77
2024/03/19 03:49:19;;;;;;;20.13;18.73;;;6.20;99.90;;;;;;4999655;28;20215;-77
2024/03/19 03:51:46;;;;;;;20.40;18.93;;;6.10;99.90;;;;;;5007932;28;20610;-78
2024/03/19 03:54:13;;;;;;;20.30;19.00;;;6.10;99.90;;;;;;5017492;28;20698;-82
2024/03/19 03:56:40;;;;;;;20.90;19.40;;;6.00;99.90;;;;;;5014737;28;20198;-80
2024/03/19 03:59:07;;;;;;;20.70;19.40;;;6.00;99.90;;;;;;5011556;28;20249;-79
2024/03/19 04:01:33;;;;;;;20.43;19.13;;;6.00;99.90;;;;;;5017715;28;20231;-80
2024/03/19 04:04:00;;;;;;;19.03;17.73;;;5.90;99.90;;;;;;5011333;28;20244;-79
2024/03/19 04:06:28;;;;;;;19.17;17.90;;;5.90;99.90;;;;;;5005025;28;20218;-79
2024/03/19 04:08:55;;;;;;;18.77;17.67;;;5.90;99.90;;;;;;5011807;28;20194;-80
2024/03/19 04:11:22;;;;;;;19.53;18.33;;;5.90;99.90;;;;;;5012718;28;20228;-79
2024/03/19 04:13:49;;;;;;;19.27;18.07;;;5.80;99.90;;;;;;5004533;28;20191;-77
2024/03/19 04:16:17;;;;;;;19.90;18.70;;;5.80;99.90;;;;;;5014000;28;20229;-77
2024/03/19 04:18:44;;;;;;;19.50;18.20;;;5.70;99.90;;;;;;5006497;28;20200;-77
2024/03/19 04:21:11;;;;;;;20.30;19.00;;;5.70;99.90;;;;;;5013535;28;20207;-79
2024/03/19 04:23:39;;;;;;;20.93;19.53;;;5.60;99.90;;;;;;5009156;28;20210;-79
2024/03/19 04:26:06;;;;;;;20.37;19.17;;;5.60;99.90;;;;;;5005817;28;20670;-78
2024/03/19 04:28:33;;;;;;;19.73;18.53;;;5.60;99.90;;;;;;4998289;28;20204;-79
2024/03/19 04:30:59;;;;;;;18.90;17.80;;;5.60;99.90;;;;;;5007275;28;20205;-78
2024/03/19 04:33:26;;;;;;;20.60;19.37;;;5.50;99.90;;;;;;5006239;28;20231;-78
2024/03/19 04:35:53;;;;;;;19.00;17.90;;;5.60;99.90;;;;;;5006506;28;20254;-79
2024/03/19 04:38:20;;;;;;;19.30;18.20;;;5.50;99.90;;;;;;5005269;28;20214;-79
2024/03/19 04:40:48;;;;;;;19.30;18.20;;;5.50;99.90;;;;;;5013612;28;20286;-79
2024/03/19 04:43:16;;;;;;;19.27;18.17;;;5.40;99.90;;;;;;5005207;28;20219;-77
2024/03/19 04:45:43;;;;;;;19.00;17.90;;;5.50;99.90;;;;;;4998878;28;20221;-77
2024/03/19 04:48:10;;;;;;;19.13;18.03;;;5.50;99.90;;;;;;5005194;28;20199;-78
2024/03/19 04:50:36;;;;;;;19.33;18.13;;;5.40;99.90;;;;;;4995863;28;20259;-77
2024/03/19 04:53:03;;;;;;;19.70;18.27;;;5.40;99.90;;;;;;5003026;28;20273;-77
2024/03/19 04:55:30;;;;;;;19.50;18.40;;;5.40;99.90;;;;;;5001210;28;20204;-77
2024/03/19 04:57:58;;;;;;;19.60;18.40;;;5.40;99.90;;;;;;5010048;28;20221;-80
2024/03/19 05:00:25;;;;;;;19.30;18.20;;;5.30;99.90;;;;;;4995583;28;20226;-77
2024/03/19 05:02:52;;;;;;;18.70;17.60;;;5.30;99.90;;;;;;5004553;28;20260;-78
2024/03/19 05:05:19;;;;;;;19.47;18.27;;;5.20;99.90;;;;;;5003519;28;20268;-77
2024/03/19 05:07:46;;;;;;;19.00;17.90;;;5.20;99.90;;;;;;5000624;28;20233;-80
2024/03/19 05:10:12;;;;;;;19.47;18.17;;;5.20;99.90;;;;;;5003117;28;20209;-78
2024/03/19 05:12:40;;;;;;;19.53;18.33;;;5.10;99.90;;;;;;4993863;28;20229;-78
2024/03/19 05:15:09;;;;;;;19.83;18.40;;;5.10;99.90;;;;;;5011257;28;20606;-77
2024/03/19 05:17:36;;;;;;;19.23;18.07;;;5.20;99.90;;;;;;5000639;28;20272;-77
2024/03/19 05:20:04;;;;;;;19.47;18.17;;;5.10;99.90;;;;;;4998472;28;20198;-78
2024/03/19 05:22:31;;;;;;;19.27;18.07;;;5.10;99.90;;;;;;5001169;28;20753;-78
2024/03/19 05:24:58;;;;;;;19.47;18.27;;;5.10;99.90;;;;;;4995867;28;20791;-78
2024/03/19 05:27:25;;;;;;;19.43;18.23;;;5.20;99.90;;;;;;5001897;28;20238;-78
2024/03/19 05:29:51;;;;;;;19.03;17.83;;;5.20;99.90;;;;;;5006686;28;20202;-77
2024/03/19 05:32:20;;;;;;;18.63;17.40;;;5.10;99.90;;;;;;5000440;28;20221;-78
2024/03/19 05:34:46;;;;;;;18.60;17.50;;;5.00;99.90;;;;;;5000653;28;20854;-78
2024/03/19 05:37:13;;;;;;;18.87;17.77;;;4.90;99.90;;;;;;5002560;28;20202;-77
2024/03/19 05:39:40;;;;;;;18.70;17.60;;;4.90;99.90;;;;;;5000028;28;20207;-77
2024/03/19 05:42:07;;;;;;;19.90;18.30;;;5.00;99.90;;;;;;4995353;28;20305;-80
2024/03/19 05:44:33;;;;;;;19.67;18.47;;;5.00;99.90;;;;;;5001653;28;20220;-80
2024/03/19 05:47:00;;;;;;;19.57;18.40;;;5.10;99.90;;;;;;5002285;28;20247;-80
2024/03/19 05:49:28;;;;;;;21.20;19.60;;;5.10;99.90;;;;;;5000354;28;20282;-77
2024/03/19 05:51:55;;;;;;;20.23;18.83;;;5.20;99.90;;;;;;4998864;28;20234;-77
2024/03/19 05:54:22;;;;;;;19.53;18.33;;;5.30;99.90;;;;;;5000649;28;20624;-76
2024/03/19 05:56:49;;;;;;;19.43;18.23;;;5.30;99.90;;;;;;4998141;28;20831;-77
2024/03/19 05:59:15;;;;;;;20.50;19.30;;;5.40;99.90;;;;;;4996165;28;20196;-77
2024/03/19 06:01:42;;;;;;;20.53;19.20;;;5.50;99.90;;;;;;4997964;28;20231;-77
2024/03/19 06:04:09;;;;;;;20.60;19.30;;;5.50;99.90;;;;;;4993200;28;20227;-77
2024/03/19 06:06:37;;;;;;;20.30;19.10;;;5.70;99.90;;;;;;4999673;28;20219;-77
2024/03/19 06:09:04;;;;;;;20.00;18.80;;;5.70;99.90;;;;;;5000185;28;20223;-78
2024/03/19 06:11:31;;;;;;;21.07;19.57;;;5.80;99.90;;;;;;5001094;28;20224;-78
2024/03/19 06:13:57;;;;;;;20.23;19.03;;;5.90;99.90;;;;;;4998067;28;20193;-78
2024/03/19 06:16:24;;;;;;;20.07;18.83;;;6.00;99.90;;;;;;4999228;28;20195;-78
2024/03/19 06:18:51;;;;;;;20.27;18.97;;;6.10;99.90;;;;;;5009056;28;20194;-78
2024/03/19 06:21:18;;;;;;;19.47;18.30;;;6.10;99.90;;;;;;4993075;28;20234;-78
2024/03/19 06:23:46;;;;;;;20.47;19.17;;;6.20;99.90;;;;;;4996826;28;20194;-78
2024/03/19 06:26:14;;;;;;;21.00;19.10;;;6.30;99.90;;;;;;5000226;28;20286;-78
2024/03/19 06:28:41;;;;;;;19.50;18.40;;;6.40;99.90;;;;;;4995684;28;20265;-77
2024/03/19 06:31:07;;;;;;;20.17;18.67;;;6.40;99.90;;;;;;5003272;28;20201;-78
2024/03/19 06:33:34;;;;;;;20.63;19.10;;;6.50;99.90;;;;;;4998404;28;20208;-78
2024/03/19 06:36:01;;;;;;;18.93;17.93;;;6.60;99.90;;;;;;5002972;28;20196;-78
2024/03/19 06:38:28;;;;;;;19.50;18.40;;;6.70;99.90;;;;;;4995979;28;20296;-77
2024/03/19 06:40:56;;;;;;;20.00;18.90;;;6.80;99.90;;;;;;4998706;28;20197;-78
2024/03/19 06:43:23;;;;;;;19.47;18.37;;;6.80;99.90;;;;;;4996267;28;20637;-78
2024/03/19 06:45:50;;;;;;;20.40;19.20;;;6.90;99.90;;;;;;4996948;28;20220;-78
2024/03/19 06:48:16;;;;;;;19.47;18.37;;;7.00;99.90;;;;;;4991210;28;20224;-77
2024/03/19 06:50:43;;;;;;;19.00;17.90;;;7.10;99.90;;;;;;5000063;28;20205;-78
2024/03/19 06:53:11;;;;;;;19.87;18.67;;;7.20;99.90;;;;;;4999169;28;20279;-78
2024/03/19 06:55:37;;;;;;;19.47;18.27;;;7.30;99.90;;;;;;4996545;28;20197;-78
2024/03/19 06:58:06;;;;;;;17.90;16.77;;;7.30;99.90;;;;;;5001338;28;20251;-78
2024/03/19 07:00:34;;;;;;;24.57;23.17;;;7.50;99.90;;;;;;4999865;28;20226;-78
2024/03/19 07:03:01;;;;;;;18.10;17.00;;;7.60;99.90;;;;;;5010466;28;20323;-78
2024/03/19 07:05:29;;;;;;;19.43;18.23;;;7.70;99.90;;;;;;5002550;28;20748;-78
2024/03/19 07:07:58;;;;;;;17.40;16.30;;;7.80;99.90;;;;;;5007875;28;20201;-80
2024/03/19 07:10:26;;;;;;;16.87;15.87;;;7.80;99.90;;;;;;5008332;28;20276;-77
2024/03/19 07:12:53;;;;;;;16.60;15.60;;;7.90;99.90;;;;;;5002908;28;20308;-78
2024/03/19 07:15:21;;;;;;;17.87;16.87;;;7.90;99.90;;;;;;5003402;28;20220;-79
2024/03/19 07:17:51;;;;;;;17.40;16.40;;;8.00;99.90;;;;;;5005944;28;20255;-79
2024/03/19 07:20:19;;;;;;;17.07;16.13;;;8.00;99.90;;;;;;5003935;28;20208;-79
2024/03/19 07:22:50;;;;;;;16.87;15.87;;;8.10;99.90;;;;;;4994438;28;20315;-79
2024/03/19 07:25:17;;;;;;;17.10;16.10;;;8.20;99.90;;;;;;5009946;28;20233;-79
2024/03/19 07:27:44;;;;;;;17.80;16.60;;;8.30;99.90;;;;;;5004006;28;20211;-77
2024/03/19 07:30:13;;;;;;;17.87;16.77;;;8.50;99.90;;;;;;5012904;28;20223;-78
2024/03/19 07:32:41;;;;;;;17.77;16.57;;;8.60;99.90;;;;;;4996747;28;20224;-77
2024/03/19 07:35:09;;;;;;;17.50;16.50;;;8.80;99.90;;;;;;5000340;28;20204;-78
2024/03/19 07:37:37;;;;;;;17.80;16.63;;;9.00;99.90;;;;;;4997542;28;20201;-78
2024/03/19 07:40:04;;;;;;;16.70;15.70;;;9.00;99.90;;;;;;5011483;28;20412;-78
2024/03/19 07:42:31;;;;;;;10.87;10.17;;;9.20;99.90;;;;;;4998032;28;20217;-79
2024/03/19 07:44:58;;;;;;;16.87;15.87;;;9.30;99.90;;;;;;5002228;28;20217;-77
2024/03/19 07:47:24;;;;;;;16.73;15.70;;;9.40;99.90;;;;;;5000590;28;20205;-77
2024/03/19 07:49:53;;;;;;;14.70;13.70;;;9.50;99.90;;;;;;5001281;28;20706;-77
2024/03/19 07:52:19;;;;;;;10.70;10.00;;;9.60;99.90;;;;;;4994357;28;20312;-77
2024/03/19 07:54:46;;;;;;;15.67;14.47;;;9.60;99.90;;;;;;5002550;28;20197;-78
2024/03/19 07:57:13;;;;;;;16.90;15.90;;;9.60;99.90;;;;;;5001732;28;20583;-77
2024/03/19 07:59:40;;;;;;;16.70;15.60;;;9.60;99.90;;;;;;5000289;28;20208;-77
2024/03/19 08:02:08;;;;;;;16.10;15.10;;;9.70;99.90;;;;;;5000388;28;20324;-77
2024/03/19 08:04:35;;;;;;;15.50;14.60;;;9.80;99.90;;;;;;4998497;28;20214;-77
2024/03/19 08:07:03;;;;;;;14.60;13.60;;;10.00;99.90;;;;;;5009728;28;20207;-77
2024/03/19 08:09:30;;;;;;;12.23;11.33;;;10.10;99.90;;;;;;4996163;28;20241;-78
2024/03/19 08:12:00;;;;;;;10.47;9.67;;;10.30;99.90;;;;;;4999544;28;20233;-77
2024/03/19 08:14:27;;;;;;;12.90;12.00;;;10.40;99.90;;;;;;4994356;28;20778;-77
2024/03/19 08:16:54;;;;;;;15.17;14.20;;;10.50;99.90;;;;;;5000161;28;20195;-77
2024/03/19 08:19:21;;;;;;;12.87;12.00;;;10.60;99.90;;;;;;5002076;28;20235;-77
2024/03/19 08:21:48;;;;;;;15.20;14.20;;;10.60;99.90;;;;;;5000591;28;20265;-77
2024/03/19 08:24:16;;;;;;;13.27;12.37;;;10.50;99.90;;;;;;4999625;28;20235;-77
2024/03/19 08:26:44;;;;;;;14.23;13.23;;;10.80;99.90;;;;;;5010043;28;20200;-77
2024/03/19 08:29:11;;;;;;;8.43;7.73;;;11.40;99.90;;;;;;5000089;28;20248;-77
2024/03/19 08:31:38;;;;;;;5.83;5.33;;;11.80;99.90;;;;;;4997309;28;20217;-78
2024/03/19 08:34:05;;;;;;;6.00;5.30;;;12.00;99.90;;;;;;5002884;28;20204;-77
2024/03/19 08:36:32;;;;;;;6.27;5.67;;;12.10;99.90;;;;;;5029477;28;20231;-77
2024/03/19 08:38:58;;;;;;;6.80;6.07;;;12.20;99.90;;;;;;5002138;28;20664;-77
2024/03/19 08:41:27;;;;;;;6.07;5.47;;;12.10;99.90;;;;;;4996197;28;20260;-78
2024/03/19 08:43:56;;;;;;;5.37;4.97;;;12.00;99.90;;;;;;5000157;28;20684;-78
2024/03/19 08:46:23;;;;;;;5.67;5.13;;;12.00;99.90;;;;;;4995548;28;20227;-77
2024/03/19 08:48:50;;;;;;;6.13;5.00;;;12.10;99.90;;;;;;4997085;28;20619;-77
2024/03/19 08:51:17;;;;;;;5.20;4.70;;;12.10;99.90;;;;;;5002107;28;20296;-77
2024/03/19 08:53:44;;;;;;;5.40;4.90;;;12.20;99.90;;;;;;4997805;28;20201;-78
2024/03/19 08:56:10;;;;;;;5.17;4.70;;;12.30;99.90;;;;;;5001479;28;20185;-77
2024/03/19 08:58:39;;;;;;;5.90;5.40;;;12.30;99.90;;;;;;4995709;28;20264;-77
2024/03/19 09:01:06;;;;;;;5.50;5.00;;;12.30;99.90;;;;;;5000654;28;20196;-77
2024/03/19 09:03:33;;;;;;;10.20;9.43;;;12.40;99.90;;;;;;5028208;28;20235;-77
2024/03/19 09:06:00;;;;;;;10.40;9.60;;;12.50;99.90;;;;;;5003588;28;20210;-77
2024/03/19 09:08:28;;;;;;;9.60;8.70;;;12.90;99.90;;;;;;5000156;28;20284;-77
2024/03/19 09:10:55;;;;;;;5.83;5.33;;;13.40;99.90;;;;;;4996251;28;20277;-77
2024/03/19 09:13:22;;;;;;;5.80;5.10;;;13.80;99.90;;;;;;4994210;28;20248;-78
2024/03/19 09:15:51;;;;;;;5.40;4.90;;;14.20;99.90;;;;;;4997591;28;20228;-77
2024/03/19 09:18:18;;;;;;;6.17;5.57;;;14.50;99.90;;;;;;5003917;28;20635;-77
2024/03/19 09:20:47;;;;;;;9.07;8.37;;;14.50;99.90;;;;;;5000019;28;20205;-78
2024/03/19 09:23:14;;;;;;;9.57;8.87;;;14.60;99.90;;;;;;4994669;28;20212;-77
2024/03/19 09:25:42;;;;;;;8.57;7.97;;;15.00;99.90;;;;;;5001905;28;20226;-78
2024/03/19 09:28:09;;;;;;;9.53;8.73;;;15.10;99.90;;;;;;4999819;28;20209;-78
2024/03/19 09:30:36;;;;;;;13.13;12.17;;;15.20;99.90;;;;;;5005610;28;20208;-78
2024/03/19 09:33:05;;;;;;;13.93;12.93;;;15.30;99.90;;;;;;4995154;28;20668;-78
2024/03/19 09:35:32;;;;;;;12.05;11.25;;;15.30;99.90;;;;;;4996402;28;20522;-78
2024/03/19 09:37:59;;;;;;;12.33;11.40;;;15.10;99.90;;;;;;4995836;28;20552;-78
2024/03/19 09:40:27;;;;;;;11.87;10.97;;;14.90;99.90;;;;;;5006054;28;20228;-77
2024/03/19 09:42:54;;;;;;;13.47;12.57;;;14.90;99.90;;;;;;4998271;28;20225;-78
2024/03/19 09:45:27;;;;;;;13.40;12.50;;;15.10;99.90;;;;;;4999491;28;20637;-78
2024/03/19 09:47:56;;;;;;;12.20;11.50;;;15.20;99.90;;;;;;5000327;28;20205;-78
2024/03/19 09:50:26;;;;;;;12.43;11.63;;;15.00;99.90;;;;;;5007150;28;20279;-77
2024/03/19 09:52:53;;;;;;;12.90;12.10;;;14.80;99.90;;;;;;5000627;28;20215;-77
2024/03/19 09:55:20;;;;;;;13.60;12.60;;;14.60;99.90;;;;;;5007778;28;20201;-78
2024/03/19 09:57:48;;;;;;;13.20;12.30;;;14.40;99.90;;;;;;4998590;28;20617;-78
2024/03/19 10:00:20;;;;;;;11.23;10.43;;;14.10;99.90;;;;;;4999126;28;20311;-77
2024/03/19 10:02:47;;;;;;;12.40;11.60;;;14.00;99.90;;;;;;4994442;28;20317;-77
2024/03/19 10:05:14;;;;;;;12.97;12.07;;;14.00;99.90;;;;;;4997608;28;20232;-78
2024/03/19 10:07:43;;;;;;;13.37;12.47;;;14.10;99.90;;;;;;5000632;28;20203;-77
2024/03/19 10:10:14;;;;;;;12.53;11.53;;;14.10;99.90;;;;;;5000786;28;20205;-77
2024/03/19 10:12:41;;;;;;;12.60;11.70;;;14.00;99.90;;;;;;5005605;28;20285;-78
2024/03/19 10:15:09;;;;;;;12.63;11.73;;;13.90;99.90;;;;;;4997458;28;20998;-78
2024/03/19 10:17:36;;;;;;;10.37;9.67;;;13.80;99.90;;;;;;4999328;28;20645;-78
2024/03/19 10:20:04;;;;;;;11.27;10.47;;;13.80;99.90;;;;;;4995264;28;20715;-77
2024/03/19 10:22:31;;;;;;;11.63;10.83;;;13.80;99.90;;;;;;5002055;28;20235;-77
2024/03/19 10:24:59;;;;;;;12.10;11.27;;;13.80;99.90;;;;;;5010418;28;20262;-77
2024/03/19 10:27:26;;;;;;;14.17;13.27;;;13.70;99.90;;;;;;4995592;28;20629;-78
2024/03/19 10:29:53;;;;;;;13.57;12.67;;;13.70;99.90;;;;;;5002843;28;20252;-79
2024/03/19 10:32:20;;;;;;;13.47;12.60;;;13.90;99.90;;;;;;5000506;28;20248;-78
2024/03/19 10:34:50;;;;;;;12.10;11.40;;;14.20;99.90;;;;;;5002429;28;20232;-79
2024/03/19 10:37:18;;;;;;;10.97;10.17;;;14.40;99.90;;;;;;5002489;28;20192;-79
2024/03/19 10:39:47;;;;;;;8.67;7.87;;;14.50;99.90;;;;;;5013848;28;20197;-79
2024/03/19 10:42:15;;;;;;;8.07;7.47;;;14.50;99.90;;;;;;5001767;28;20289;-80
2024/03/19 10:44:44;;;;;;;7.83;7.13;;;14.50;99.90;;;;;;4997120;28;20247;-80
2024/03/19 10:47:14;;;;;;;10.40;9.70;;;14.60;99.90;;;;;;5004104;28;20231;-80
2024/03/19 10:49:40;;;;;;;9.93;9.27;;;14.60;99.90;;;;;;5006104;28;20227;-80
2024/03/19 10:52:13;;;;;;;10.30;9.60;;;14.70;99.90;;;;;;5003072;28;20772;-80
2024/03/19 10:54:43;;;;;;;9.07;8.47;;;14.90;99.90;;;;;;4999516;28;20198;-79
2024/03/19 10:57:16;;;;;;;10.23;9.53;;;14.80;99.90;;;;;;5004444;28;20194;-80
2024/03/19 10:59:43;;;;;;;9.03;8.43;;;14.90;99.90;;;;;;5001472;28;20194;-80
2024/03/19 11:02:15;;;;;;;12.10;11.30;;;14.90;99.90;;;;;;5001740;28;20742;-80
2024/03/19 11:04:43;;;;;;;11.83;11.13;;;14.90;99.90;;;;;;5007861;28;20264;-78
2024/03/19 11:07:23;;;;;;;11.53;10.83;;;14.90;99.90;;;;;;4998999;28;20645;-78
2024/03/19 11:09:52;;;;;;;11.43;10.73;;;14.90;99.90;;;;;;4996031;28;20218;-78
2024/03/19 11:12:23;;;;;;;12.00;11.30;;;15.00;99.90;;;;;;4999951;28;20321;-77
2024/03/19 11:14:55;;;;;;;12.47;11.67;;;15.10;99.90;;;;;;4999579;28;20616;-78
2024/03/19 11:17:26;;;;;;;12.00;11.20;;;15.00;99.90;;;;;;5004160;28;20642;-78
2024/03/19 11:19:57;;;;;;;12.03;11.23;;;15.10;99.90;;;;;;5004946;28;20216;-78
2024/03/19 11:22:24;;;;;;;11.40;10.70;;;15.10;99.90;;;;;;5011462;28;20228;-78
2024/03/19 11:24:51;;;;;;;11.53;10.83;;;15.20;99.90;;;;;;5002846;28;20202;-78
2024/03/19 11:27:20;;;;;;;11.97;11.27;;;15.20;99.90;;;;;;4998364;28;20232;-78
2024/03/19 11:29:49;;;;;;;11.47;10.77;;;15.10;99.90;;;;;;5002205;28;20193;-78
2024/03/19 11:32:23;;;;;;;11.70;10.93;;;15.10;99.90;;;;;;4997150;28;20231;-78
2024/03/19 11:34:51;;;;;;;13.77;12.87;;;14.80;99.90;;;;;;5000525;28;20209;-78
2024/03/19 11:37:18;;;;;;;12.23;11.53;;;14.70;99.90;;;;;;5004540;28;20225;-78
2024/03/19 11:39:45;;;;;;;12.17;11.37;;;14.80;99.90;;;;;;4998657;28;20215;-78
2024/03/19 11:42:12;;;;;;;12.67;11.87;;;14.90;99.90;;;;;;5001898;28;20626;-78
2024/03/19 11:44:41;;;;;;;12.10;11.30;;;14.90;99.90;;;;;;4997531;28;20551;-78
2024/03/19 11:47:08;;;;;;;10.90;10.20;;;15.00;99.90;;;;;;5004603;28;20224;-77
2024/03/19 11:49:34;;;;;;;10.20;9.50;;;15.00;99.90;;;;;;5006702;28;20208;-78
2024/03/19 11:52:04;;;;;;;10.50;9.87;;;15.00;99.90;;;;;;5004929;28;20256;-78
2024/03/19 11:54:32;;;;;;;10.10;9.40;;;15.20;99.90;;;;;;5004342;28;20266;-78
2024/03/19 11:56:59;;;;;;;9.37;8.77;;;15.30;99.90;;;;;;5006562;28;20196;-78
2024/03/19 11:59:27;;;;;;;10.40;9.63;;;15.40;99.90;;;;;;5012196;28;20198;-78
2024/03/19 12:01:57;;;;;;;10.23;9.63;;;15.30;99.90;;;;;;4999402;28;20220;-78
2024/03/19 12:04:24;;;;;;;10.13;9.53;;;15.40;99.90;;;;;;5001833;28;20196;-79
2024/03/19 12:06:52;;;;;;;9.03;8.53;;;15.60;99.90;;;;;;5000082;28;20298;-79
2024/03/19 12:09:25;;;;;;;9.70;9.20;;;15.60;99.90;;;;;;5002206;28;20258;-79
2024/03/19 12:11:52;;;;;;;10.77;10.07;;;15.60;99.90;;;;;;4998657;28;20224;-79
2024/03/19 12:14:23;;;;;;;9.20;8.60;;;15.70;99.90;;;;;;4999123;28;20460;-79
2024/03/19 12:16:50;;;;;;;9.17;8.50;;;15.80;99.90;;;;;;5006786;28;20730;-79
2024/03/19 12:19:21;;;;;;;10.80;10.13;;;15.80;99.90;;;;;;4998789;28;20672;-79
2024/03/19 12:21:49;;;;;;;10.53;9.83;;;15.80;99.90;;;;;;5005128;28;20219;-79
2024/03/19 12:24:17;;;;;;;9.83;9.03;;;15.70;99.90;;;;;;4998146;28;20224;-79
2024/03/19 12:26:47;;;;;;;10.30;9.70;;;15.70;99.90;;;;;;5002084;28;20298;-79
2024/03/19 12:29:15;;;;;;;10.50;9.90;;;15.70;99.90;;;;;;5004324;28;20387;-79
2024/03/19 12:31:49;;;;;;;10.13;9.53;;;15.70;99.90;;;;;;5001000;28;20217;-79
2024/03/19 12:34:37;;;;;;;10.40;9.80;;;15.70;99.90;;;;;;5010764;28;20207;-79
2024/03/19 12:37:05;;;;;;;10.30;9.77;;;15.80;99.90;;;;;;5000127;28;20193;-78